Main page
METAR-TAF:

METAR-TAF

Airports :

Podgorica Airport

Podgorica, Montenegro

latitude: 42-26N, longitude: 019-17E, elevation: 53 m

Current weather observation

The report was made 24 minutes ago, at 00:00 UTC
Wind 6 kt from the North
Temperature 17°C
Humidity 94%
Pressure 1014 hPa
Visibility 10 km or more
Few clouds at a height of 5000 ft

METAR: LYPG 240000Z 35006KT 9999 FEW050 17/16 Q1014 NOSIG

Time: 02:24 (00:24 UTC)

Forecast

The report was made 1 hour and 24 minutes ago, at 23:00 UTC
Forecast valid from 24 at 00 UTC to 24 at 24 UTC
Wind 5 kt from the North
Visibility 10 km or more
Few clouds at a height of 4000 ft
Probability 40% :
Temporary
from 24 at 12 UTC to 24 at 17 UTC
Wind 15 kt from variable directions
Visibility: 5000 m
Few clouds at a height of 3000 ft, Cumulonimbus.
Scattered clouds at a height of 4000 ft
thunderstorm, rain

TAF: LYPG 232300Z 2400/2424 36005KT 9999 FEW040 TX27/2413Z TN15/2403Z PROB40 TEMPO 2412/2417 VRB15KT 5000 TSRA FEW030CB SCT040

Weather observations and forecasts of more than 4000 airports (METAR and TAF reports).

The available stations are represented by yellow and red dots on the map.

Hover mouse over dot to see the name of the station.

Then click to see weather observations and forecasts.

To change the map : click on the green buttons with a black cross to zoom in, on the green button with a dash to zoom out, or on the green arrows for adjacent maps.


METAR-TAF: